Tuesday, June 19, 2018, 6:47 AM EDT
Back to Local

KFMH, Otis Air National Guard Base

Location: Mashpee, MA, United States Lat: 41.65
Local Time: 6:47 AM EDT (10:47 GMT) Lon: -70.517
Time Zone: US/Eastern Elev: 131 ft

Show me the last for .
Show Decoded

2018-06-19 06:35 METAR KFMH 191035Z AUTO 00000KT 4SM BR SCT110 19/19 A2968 RMK AO2 =
2018-06-19 06:15 METAR KFMH 191015Z AUTO 26004KT 4SM BR FEW100 19/19 A2967 RMK AO2 =
2018-06-19 05:55 METAR KFMH 190955Z AUTO 26005KT 4SM BR FEW003 SCT070 BKN100 19/19 A2967 RMK AO2
                 =
2018-06-19 05:35 METAR KFMH 190935Z AUTO 25008KT 4SM -DZ FEW003 FEW031 BKN065 19/19 A2967 RMK AO2
                 =
2018-06-19 05:15 METAR KFMH 190915Z AUTO 25009G18KT 5SM -DZ BKN005 BKN031 OVC065 18/18 A2967 RMK
                 AO2 =
2018-06-19 04:55 METAR KFMH 190855Z AUTO 25011G17KT 6SM BR OVC005 18/18 A2967 RMK AO2 =
2018-06-19 04:35 METAR KFMH 190835Z AUTO 25015KT 7SM OVC005 18/18 A2966 RMK AO2 =
2018-06-19 04:15 METAR KFMH 190815Z AUTO 24016KT 8SM OVC005 18/18 A2967 RMK AO2 =
2018-06-19 03:55 METAR KFMH 190755Z AUTO 25015G21KT 7SM OVC006 18/18 A2967 RMK AO2 =
2018-06-19 03:35 METAR KFMH 190735Z AUTO 25017KT 9SM OVC005 18/18 A2967 RMK AO2 =
2018-06-19 03:15 METAR KFMH 190715Z AUTO 24015G22KT 10SM BKN005 OVC060 18/18 A2967 RMK AO2 =
2018-06-19 02:55 METAR KFMH 190655Z AUTO 24014G21KT 9SM OVC005 18/18 A2967 RMK AO2 =
2018-06-19 02:35 METAR KFMH 190635Z AUTO 24014G23KT 6SM -DZ OVC005 18/18 A2967 RMK AO2 =
2018-06-19 02:15 METAR KFMH 190615Z AUTO 24014G21KT 7SM -RA OVC006 18/18 A2969 RMK AO2 =
2018-06-19 01:55 METAR KFMH 190555Z AUTO 24016G21KT 10SM SCT007 19/18 A2969 RMK AO2 =
2018-06-19 01:35 METAR KFMH 190535Z AUTO 23017G23KT 10SM CLR 19/18 A2969 RMK AO2 =
2018-06-19 01:15 METAR KFMH 190515Z AUTO 24016G22KT 10SM CLR 19/17 A2970 RMK AO2 =
2018-06-19 00:55 METAR KFMH 190455Z AUTO 24015G24KT 10SM FEW007 19/19 A2971 RMK AO2 =
2018-06-19 00:15 METAR KFMH 190415Z AUTO 23013G19KT 10SM BKN006 BKN060 OVC110 19/19 A2973 RMK AO2
                 =
2018-06-18 23:55 METAR KFMH 190355Z AUTO 22013G20KT 10SM FEW080 BKN090 OVC110 19/19 A2974 RMK AO2
                 =
2018-06-18 23:35 METAR KFMH 190335Z AUTO 22015G23KT 10SM FEW030 SCT075 BKN095 19/19 A2975 RMK AO2
                 =
2018-06-18 23:15 METAR KFMH 190315Z AUTO 23015G23KT 6SM -RA 19/19 A2977 RMK AO2 =
2018-06-18 22:55 METAR KFMH 190255Z AUTO 23019G29KT 19/19 A2980 RMK AO2 PWINO =
2018-06-18 22:35 METAR KFMH 190235Z AUTO 25020G27KT 5SM VCTS RA OVC004 19/19 A2983 RMK AO2 LTG
                 DSNT SW =
2018-06-18 22:15 METAR KFMH 190215Z AUTO 23015G24KT 8SM -DZ OVC004 19/19 A2982 RMK AO2 =
2018-06-18 21:55 METAR KFMH 190155Z AUTO 23014G21KT 10SM OVC005 19/19 A2981 RMK AO2 =
2018-06-18 21:35 METAR KFMH 190135Z AUTO 23014G25KT 10SM BKN008 OVC012 20/19 A2982 RMK AO2 =
2018-06-18 21:15 METAR KFMH 190115Z AUTO 23013G25KT 10SM SCT011 SCT034 BKN095 20/19 A2981 RMK AO2
                 =
2018-06-18 20:55 METAR KFMH 190055Z AUTO 23016G22KT 10SM SCT009 SCT038 BKN046 20/19 A2980 RMK AO2
                 =
2018-06-18 20:35 METAR KFMH 190035Z 23016G23KT 10SM SCT007 BKN100 20/19 A2979 RMK AO2 =
2018-06-18 20:15 METAR KFMH 190015Z 23017G24KT 10SM SCT007 BKN100 20/19 A2982 RMK AO2 =
2018-06-18 19:55 METAR KFMH 182355Z 23016G25KT 9SM SCT009 BKN100 20/19 A2983 RMK AO2 LTG DSNT N =
2018-06-18 19:35 METAR KFMH 182335Z AUTO 24016G24KT 10SM FEW010 21/19 A2984 RMK AO2 LTG DSNT N =
2018-06-18 19:15 METAR KFMH 182315Z AUTO 23017G24KT 10SM CLR 21/19 A2983 RMK AO2 LTG DSNT N AND
                 NW =
2018-06-18 18:55 METAR KFMH 182255Z 24014G20KT 10SM BKN080 OVC120 21/18 A2984 RMK AO2 LTG DSNT N
                 AND NW =
2018-06-18 18:35 METAR KFMH 182235Z AUTO 23017G24KT 10SM CLR 22/18 A2983 RMK AO2 LTG DSNT N AND
                 NW =
2018-06-18 18:15 METAR KFMH 182215Z AUTO 23018G27KT 10SM CLR 23/18 A2982 RMK AO2 LTG DSNT N AND
                 NW =
2018-06-18 17:55 METAR KFMH 182155Z AUTO 23018G29KT 10SM CLR 24/19 A2983 RMK AO2 =
2018-06-18 17:35 METAR KFMH 182135Z AUTO 23017G26KT 10SM CLR 23/18 A2984 RMK AO2 =
2018-06-18 17:15 METAR KFMH 182115Z AUTO 22019G28KT 10SM CLR 24/19 A2984 RMK AO2 =
2018-06-18 16:55 METAR KFMH 182055Z AUTO 23023KT 10SM CLR 23/19 A2986 RMK AO2 =
2018-06-18 16:35 METAR KFMH 182035Z AUTO 22021G29KT 10SM CLR 24/19 A2987 RMK AO2 =
2018-06-18 16:15 METAR KFMH 182015Z AUTO 23018G25KT 10SM CLR 25/19 A2988 RMK AO2 =
2018-06-18 15:55 METAR KFMH 181955Z AUTO 22018G25KT 10SM CLR 24/19 A2988 RMK AO2 =
2018-06-18 15:35 METAR KFMH 181935Z AUTO 23020G27KT 10SM CLR 24/19 A2990 RMK AO2 =
2018-06-18 15:15 METAR KFMH 181915Z AUTO 22020G25KT 10SM CLR 24/18 A2990 RMK AO2 =
2018-06-18 14:55 METAR KFMH 181855Z AUTO 22020G27KT 10SM CLR 24/19 A2990 RMK AO2 =
2018-06-18 14:35 METAR KFMH 181835Z AUTO 22021G26KT 10SM CLR 24/19 A2992 RMK AO2 =
2018-06-18 14:15 METAR KFMH 181815Z AUTO 22018G24KT 10SM CLR 24/19 A2993 RMK AO2 =
2018-06-18 13:55 METAR KFMH 181755Z AUTO 23017G24KT 10SM CLR 24/18 A2994 RMK AO2 =
2018-06-18 13:35 METAR KFMH 181735Z AUTO 23015G24KT 10SM CLR 25/19 A2995 RMK AO2 =
2018-06-18 13:15 METAR KFMH 181715Z AUTO 22019G25KT 10SM CLR 25/19 A2995 RMK AO2 =
2018-06-18 12:55 METAR KFMH 181655Z AUTO 23020G26KT 10SM CLR 25/19 A2996 RMK AO2 =
2018-06-18 12:35 METAR KFMH 181635Z AUTO 22019G28KT 10SM CLR 26/19 A2997 RMK AO2 =
2018-06-18 12:15 METAR KFMH 181615Z AUTO 23017G24KT 10SM CLR 26/19 A2997 RMK AO2 =
2018-06-18 11:55 METAR KFMH 181555Z AUTO 24016G22KT 10SM CLR 25/18 A2997 RMK AO2 =
2018-06-18 11:35 METAR KFMH 181535Z AUTO 24019G31KT 10SM CLR 24/18 A2998 RMK AO2 =
2018-06-18 11:15 METAR KFMH 181515Z AUTO 23019G27KT 10SM CLR 24/17 A2999 RMK AO2 =
2018-06-18 10:55 METAR KFMH 181455Z AUTO 23018G28KT 10SM CLR 24/17 A2999 RMK AO2 =
2018-06-18 10:35 METAR KFMH 181435Z AUTO 24021G29KT 10SM CLR 24/16 A2999 RMK AO2 =
2018-06-18 10:15 METAR KFMH 181415Z AUTO 24018G25KT 10SM CLR 24/17 A3000 RMK AO2 =
2018-06-18 09:55 METAR KFMH 181355Z AUTO 23016G26KT 10SM CLR 24/19 A3000 RMK AO2 =
2018-06-18 09:35 METAR KFMH 181335Z AUTO 21017KT 10SM CLR 24/19 A3000 RMK AO2 =
2018-06-18 09:15 METAR KFMH 181315Z AUTO 22015G21KT 10SM CLR 24/19 A3001 RMK AO2 =
2018-06-18 08:55 METAR KFMH 181255Z AUTO 23013G22KT 10SM CLR 23/19 A3001 RMK AO2 =
2018-06-18 08:35 METAR KFMH 181235Z AUTO 23016G24KT 10SM CLR 22/18 A3001 RMK AO2 =
2018-06-18 08:15 METAR KFMH 181215Z AUTO 22016KT 10SM CLR 22/19 A3002 RMK AO2 =
2018-06-18 07:55 METAR KFMH 181155Z AUTO 23015G20KT 10SM CLR 22/19 A3002 RMK AO2 =
2018-06-18 07:35 METAR KFMH 181135Z AUTO 23014G20KT 10SM CLR 21/18 A3003 RMK AO2 =
2018-06-18 07:15 METAR KFMH 181115Z AUTO 22014KT 10SM CLR 20/18 A3003 RMK AO2 =
2018-06-18 06:55 METAR KFMH 181055Z AUTO 23014KT 10SM CLR 20/18 A3004 RMK AO2 =

Support USWX by starting your Amazon purchase here.